Trans Sea — 9HA2564 — position and weather

sailwx.info

Track history (hours):
 
Tides and Currents Weather Stations Pressure Air Temp Water Temp Dewpoint Dewpoint Depression Visibility Wind Speed Wind Dir Waves Ship Positions

Trans Sea

Last reported at 2014-Jul-26 16:19 UTC. Time now 2014-Jul-28 18:28 UTC.
Position N 37°39' E 009°38'.

Length 107 m; draft 5.1 m.

Type: Ship (hazmat cat B). MMSI: 248887000.

Date/timePositionNaut miles runAvg speedWind from/ knotsBaromVisibWave heightAir tempDewpointWater temp
2014-Jul-26 16:19N 37°39' E 009°38'18712.6
2014-Jul-26 01:31N 37°05' E 013°29'1313.1
2014-Jul-26 00:33N 36°59' E 013°43'1313.3
2014-Jul-25 23:33N 36°52' E 013°58'1313.4
2014-Jul-25 22:33N 36°46' E 014°12'1313.1
2014-Jul-25 21:33N 36°40' E 014°27'1312.6
2014-Jul-25 20:33N 36°37' E 014°42'  
2014-Jul-23 11:03N 37°50' E 024°17'713.5
2014-Jul-23 10:33N 37°53' E 024°25'12413.5
2014-Jul-23 01:20N 39°44' E 025°36'1114.1
2014-Jul-23 00:33N 39°53' E 025°44'  
2014-Jul-17 21:31N 38°44' E 025°08'  
Track history (hours):
 
Tides and Currents Weather Stations Pressure Air Temp Water Temp Dewpoint Dewpoint Depression Visibility Wind Speed Wind Dir Waves Ship Positions

Trans Sea

Last reported at 2014-Jul-26 16:19 UTC. Time now 2014-Jul-28 18:28 UTC.
Position N 37°39' E 009°38'.

Length 107 m; draft 5.1 m.

Type: Ship (hazmat cat B). MMSI: 248887000.

Date/timePositionNaut miles runAvg speedWind from/ knotsBaromVisibWave heightAir tempDewpointWater temp
2014-Jul-26 16:19N 37°39' E 009°38'18712.6
2014-Jul-26 01:31N 37°05' E 013°29'1313.1
2014-Jul-26 00:33N 36°59' E 013°43'1313.3
2014-Jul-25 23:33N 36°52' E 013°58'1313.4
2014-Jul-25 22:33N 36°46' E 014°12'1313.1
2014-Jul-25 21:33N 36°40' E 014°27'1312.6
2014-Jul-25 20:33N 36°37' E 014°42'  
2014-Jul-23 11:03N 37°50' E 024°17'713.5
2014-Jul-23 10:33N 37°53' E 024°25'12413.5
2014-Jul-23 01:20N 39°44' E 025°36'1114.1
2014-Jul-23 00:33N 39°53' E 025°44'  
2014-Jul-17 21:31N 38°44' E 025°08'  

Dump ship's entire track history